首页
METAR-TAF:

METAR-TAF

机场 :

Rutland Southern Vermont Regional Airport

拉特蘭, 佛蒙特州, 美国

纬度: 43-32N, 经度: 072-57W, 海拔: 240米

当前天气观测

该预报发布于49分钟前的15:56 UTC
风速7节,风向
温度 -2°C
湿度 59%
气压 1024 hPa
能見度: 16.1公里
多云层高于4400英尺

METAR: KRUT 171556Z AUTO 36007KT 10SM BKN044 M02/M09 A3023 RMK AO2 SLP240 T10221089 FZRANO $

时间: 11:45 (16:45 UTC)

预报

该预报发布于5小时和22分钟前的11:23 UTC
预报有效从17日的 12点(UTC)到 18日的 12点(UTC)
风速6节,风向西北
能見度: 10公里
散云层高于6000英尺
从 17日的 1400点(UTC)
风速8节,风向西北
能見度: 10公里
少量云层高于6000英尺
从 17日的 2200点(UTC)
风速5节,风向北转西北
能見度: 10公里
天空无云
从 18日的 0500点(UTC)
风速5节,风向东转东南
能見度: 10公里
散云层高于15000英尺
从 18日的 0900点(UTC)
风速14节,风向东转东南
能見度: 10公里
多云层高于12000英尺
从 18日的 1100点(UTC)
风速16节,风向东南,有时为24节阵风
能見度: 10公里
阴天层高于7000英尺

TAF: KRUT 171123Z 1712/1812 31006KT P6SM SCT060 FM171400 31008KT P6SM FEW060 FM172200 34005KT P6SM SKC FM180500 12005KT P6SM SCT150 FM180900 12014KT P6SM BKN120 FM181100 13016G24KT P6SM OVC070

超过4000个机场的气象观测和天气预报(METAR&TAF报告)。

可查询的气象台以黄色和红色小点在地图上表示。

将鼠标移到小点上方,可查看气象台名称。

然后点击查看天气观测和预报。

如需切换地图:点击带黑十字的绿色按钮放大地图;点击带横线的绿色按钮缩小地图;或者点击绿色箭头查看邻近地区的地图。


METAR-TAF: